Forside
METAR-TAF:

METAR-TAF

Lufthavne :

Udaipur, Indien

Breddekreds: 24-37-04N, længdekreds: 73-53-46E, højde: 513 m

Aktuelle vejr

Denne rapport blev lavet for 54 minutter siden, kl. 15:30 UTC
Vind stille
Temperatur 26°C
Fugtighed 34%
Tryk 1014 hPa
Sigt: 5000 m
tåge/dis

METAR: VAUD 231530Z 00000KT 5000 HZ NSC 26/09 Q1014 NOSIG

Tid: 21:54 (16:24 UTC)

Vejrudsigter

Denne rapport blev lavet for 5 timer og 24 minutter siden, kl. 11:00 UTC
Foreløbig gælder fra 23 på 12 UTC til 23 på 21 UTC
Vind 5 kt fra vest
Sigt: 5000 m
tåge/dis
ændring
fra 23 på 13 UTC til 23 på 14 UTC
Vind 3 kt fra varierende retninger
Sigt: 4000 m
tåge/dis

TAF: VAUD 231100Z 2312/2321 27005KT 5000 HZ NSC BECMG 2313/2314 VRB03KT 4000 HZ

Vejrobservationer og prognoser fra mere end 4000 lufthavne (METAR og TAF).

De gule og røde prikker repræsenterer de meteorologiske stationer.

Flyt musen over at se navnet på stationen.

Så klik over at se vejr observationer og prognoser.

At skifte det kort: Klik på de grønne knapper med et sort kors for at zoome ind; på den grønne knap med en bindestreg for at zoome ud; eller på de grønne pile for tilstødende kort.


METAR-TAF: